Time;durP1;ratioP1;P1;durP2;ratioP2;P2;SDS_P1;SDS_P2;PMS_P1;PMS_P2;Temp;Humidity;BMP_temperature;BMP_pressure;BME280_temperature;BME280_humidity;BME280_pressure;Samples;Min_cycle;Max_cycle;Signal;HPM_P1;HPM_P2
2023/08/26 00:01:15;;;;;;;15.00;10.50;;;;;;;22.20;100.00;99978.02;105786;1258;100435;-83
2023/08/26 00:04:01;;;;;;;12.80;10.50;;;;;;;22.21;100.00;99989.81;105866;1263;98658;-84
2023/08/26 00:06:46;;;;;;;11.90;9.50;;;;;;;22.21;100.00;100006.17;105789;1258;98039;-85
2023/08/26 00:09:32;;;;;;;16.10;11.20;;;;;;;22.21;100.00;100012.79;108240;1257;95701;-83
2023/08/26 00:12:17;;;;;;;15.60;11.30;;;;;;;22.22;100.00;100023.36;106267;1258;102646;-83
2023/08/26 00:15:04;;;;;;;13.60;11.00;;;;;;;22.20;100.00;100041.55;105725;1263;100228;-83
2023/08/26 00:17:49;;;;;;;12.60;9.60;;;;;;;22.14;100.00;100075.11;105681;1257;98821;-84
2023/08/26 00:20:35;;;;;;;11.60;8.40;;;;;;;22.08;100.00;100074.25;105503;1266;97911;-83
2023/08/26 00:23:21;;;;;;;10.30;8.10;;;;;;;22.05;100.00;100065.74;105742;1259;97908;-84
2023/08/26 00:26:06;;;;;;;9.70;7.40;;;;;;;22.03;100.00;100057.73;105754;1261;102615;-83
2023/08/26 00:28:51;;;;;;;12.30;8.40;;;;;;;22.03;100.00;100053.95;105738;1261;99937;-83
2023/08/26 00:31:37;;;;;;;9.60;7.50;;;;;;;22.02;100.00;100052.44;105680;1264;99105;-82
2023/08/26 00:34:23;;;;;;;11.90;8.20;;;;;;;22.02;100.00;100046.27;105895;1264;98049;-83
2023/08/26 00:37:09;;;;;;;11.40;7.70;;;;;;;22.02;100.00;100044.36;105684;1258;98423;-85
2023/08/26 00:39:55;;;;;;;10.40;7.60;;;;;;;22.03;100.00;100048.55;105781;1260;102697;-83
2023/08/26 00:42:40;;;;;;;9.70;7.90;;;;;;;22.04;100.00;100045.34;105797;1263;99182;-84
2023/08/26 00:45:26;;;;;;;8.40;7.50;;;;;;;22.05;100.00;100040.48;105705;1258;135563;-83
2023/08/26 00:48:12;;;;;;;10.80;7.80;;;;;;;22.07;100.00;100037.31;105757;1258;97968;-83
2023/08/26 00:50:58;;;;;;;8.30;6.70;;;;;;;22.08;100.00;100026.23;105780;1261;99800;-84
2023/08/26 00:53:46;;;;;;;7.90;7.00;;;;;;;22.09;100.00;100020.67;105832;1258;102263;-84
2023/08/26 00:56:33;;;;;;;7.10;6.30;;;;;;;22.11;100.00;100010.96;105582;1264;100463;-83
2023/08/26 00:59:21;;;;;;;7.20;6.40;;;;;;;22.14;100.00;100004.08;105933;1257;99033;-83
2023/08/26 01:02:06;;;;;;;7.90;6.50;;;;;;;22.16;100.00;100004.84;105963;1257;97985;-83
2023/08/26 01:04:52;;;;;;;9.30;5.80;;;;;;;22.17;100.00;100004.34;105856;1257;98512;-84
2023/08/26 01:07:38;;;;;;;8.80;6.10;;;;;;;22.19;100.00;99993.86;105736;1257;102207;-84
2023/08/26 01:10:46;;;;;;;8.80;6.80;;;;;;;22.19;100.00;99986.83;105719;1258;100568;-84
2023/08/26 01:14:04;;;;;;;6.60;5.90;;;;;;;22.18;100.00;99984.04;105879;1258;98525;-84
2023/08/26 01:16:53;;;;;;;6.50;5.00;;;;;;;22.18;100.00;99993.21;106633;1258;97949;-84
2023/08/26 01:19:40;;;;;;;6.10;5.40;;;;;;;22.18;100.00;99995.50;105663;1264;98087;-84
2023/08/26 01:22:28;;;;;;;8.70;5.30;;;;;;;22.18;100.00;99994.68;105955;1258;101404;-83
2023/08/26 01:25:16;;;;;;;7.70;5.00;;;;;;;22.18;100.00;99992.02;105768;1260;99077;-83
2023/08/26 01:28:01;;;;;;;6.40;5.10;;;;;;;22.16;100.00;99995.61;105661;1264;98017;-83
2023/08/26 01:30:48;;;;;;;8.50;5.10;;;;;;;22.14;100.00;99993.76;105775;1261;98048;-82
2023/08/26 01:33:39;;;;;;;6.40;5.40;;;;;;;22.10;100.00;99995.25;105669;1260;98084;-85
2023/08/26 01:36:25;;;;;;;;;;;;;;;22.10;100.00;99986.14;105714;1258;101421;-84
2023/08/26 01:39:16;;;;;;;4.90;4.40;;;;;;;22.06;100.00;99981.45;105879;1258;99093;-84
2023/08/26 01:42:06;;;;;;;5.00;4.20;;;;;;;22.03;100.00;99982.94;105854;1260;98724;-85
2023/08/26 01:44:52;;;;;;;7.30;5.10;;;;;;;22.02;100.00;99981.68;105818;1258;98039;-85
2023/08/26 01:47:38;;;;;;;6.30;4.60;;;;;;;22.01;100.00;99974.82;105615;1264;98510;-84
2023/08/26 01:50:24;;;;;;;6.40;4.20;;;;;;;22.00;100.00;99970.02;105885;1257;102147;-84
2023/08/26 01:53:09;;;;;;;6.30;4.30;;;;;;;21.99;100.00;99967.73;105817;1263;99068;-84
2023/08/26 01:55:55;;;;;;;8.90;4.90;;;;;;;21.96;100.00;99956.33;105753;1258;97973;-84
2023/08/26 01:58:41;;;;;;;6.80;4.60;;;;;;;21.94;100.00;99962.29;105872;1258;98931;-85
2023/08/26 02:01:27;;;;;;;10.00;4.90;;;;;;;21.91;100.00;99965.63;105977;1258;97940;-84
2023/08/26 02:04:12;;;;;;;6.20;5.60;;;;;;;21.89;100.00;99964.38;105857;1262;102797;-84
2023/08/26 02:06:58;;;;;;;5.90;5.10;;;;;;;21.86;100.00;99967.37;105811;1259;100459;-83
2023/08/26 02:09:44;;;;;;;9.20;5.80;;;;;;;21.82;100.00;99964.98;105683;1258;97997;-83
2023/08/26 02:12:30;;;;;;;44.10;6.20;;;;;;;21.78;100.00;99961.36;105931;1258;98081;-83
2023/08/26 02:15:15;;;;;;;5.90;5.40;;;;;;;21.73;100.00;99964.14;105750;1265;98071;-84
2023/08/26 02:18:01;;;;;;;5.90;5.30;;;;;;;21.69;100.00;99964.54;105921;1258;101905;-85
2023/08/26 02:20:48;;;;;;;16.10;4.90;;;;;;;21.65;100.00;99968.46;105889;1258;99123;-83
2023/08/26 02:23:33;;;;;;;6.50;4.80;;;;;;;21.61;100.00;99980.52;105875;1258;99033;-84
2023/08/26 02:26:19;;;;;;;6.60;4.40;;;;;;;21.57;100.00;99983.36;105797;1264;97759;-83
2023/08/26 02:29:05;;;;;;;7.30;5.10;;;;;;;21.53;100.00;99984.00;105910;1258;98858;-84
2023/08/26 02:31:51;;;;;;;6.90;4.90;;;;;;;21.51;100.00;99985.36;105861;1258;102161;-83
2023/08/26 02:34:37;;;;;;;5.20;4.70;;;;;;;21.49;100.00;99987.98;105795;1264;99260;-84
2023/08/26 02:37:22;;;;;;;8.80;5.60;;;;;;;21.47;100.00;99988.36;105932;1262;98980;-83
2023/08/26 02:40:08;;;;;;;6.80;5.60;;;;;;;21.46;100.00;99995.55;105892;1258;98706;-84
2023/08/26 02:42:54;;;;;;;7.00;5.70;;;;;;;21.43;100.00;99998.61;105928;1263;98436;-84
2023/08/26 02:45:39;;;;;;;7.10;5.80;;;;;;;21.40;100.00;99998.66;105866;1261;101331;-83
2023/08/26 02:48:26;;;;;;;9.00;6.50;;;;;;;21.39;100.00;100004.50;105753;1258;99129;-84
2023/08/26 02:51:14;;;;;;;6.70;5.90;;;;;;;21.37;100.00;100002.48;105748;1258;98077;-83
2023/08/26 02:53:59;;;;;;;7.90;6.40;;;;;;;21.36;100.00;100003.41;105843;1264;97911;-84
2023/08/26 02:56:45;;;;;;;6.90;6.10;;;;;;;21.36;100.00;100004.61;105889;1261;98362;-84
2023/08/26 02:59:30;;;;;;;8.30;5.80;;;;;;;21.35;100.00;100002.15;105841;1264;101351;-82
2023/08/26 03:02:24;;;;;;;7.50;5.90;;;;;;;21.35;100.00;100011.15;105728;1265;99238;-82
2023/08/26 03:05:10;;;;;;;7.60;6.80;;;;;;;21.32;100.00;100015.39;105794;1261;99099;-82
2023/08/26 03:07:55;;;;;;;6.60;6.00;;;;;;;21.30;100.00;100014.02;105737;1264;98046;-83
2023/08/26 03:10:41;;;;;;;7.10;5.90;;;;;;;21.29;100.00;100014.61;105728;1263;97990;-84
2023/08/26 03:13:27;;;;;;;5.80;5.30;;;;;;;21.28;100.00;100018.05;105859;1261;101433;-84
2023/08/26 03:16:13;;;;;;;6.70;5.80;;;;;;;21.26;100.00;100014.67;105929;1259;99846;-84
2023/08/26 03:18:59;;;;;;;5.80;5.20;;;;;;;21.25;100.00;100011.67;105890;1257;99108;-83
2023/08/26 03:21:44;;;;;;;6.90;5.60;;;;;;;21.23;100.00;100014.68;105893;1261;97979;-83
2023/08/26 03:24:35;;;;;;;5.70;5.10;;;;;;;21.22;100.00;100013.63;105717;1258;98616;-83
2023/08/26 03:27:21;;;;;;;6.50;5.90;;;;;;;21.21;100.00;100005.13;105703;1261;101429;-84
2023/08/26 03:30:08;;;;;;;7.40;6.20;;;;;;;21.20;100.00;100002.09;105925;1261;100790;-84
2023/08/26 03:32:53;;;;;;;6.60;6.00;;;;;;;21.20;100.00;99999.20;105980;1258;98039;-84
2023/08/26 03:35:39;;;;;;;6.40;5.10;;;;;;;21.20;100.00;100002.63;105850;1264;98529;-85
2023/08/26 03:38:25;;;;;;;6.30;5.70;;;;;;;21.18;100.00;99998.77;105906;1259;98484;-83
2023/08/26 03:41:11;;;;;;;6.80;5.90;;;;;;;21.16;100.00;99994.61;105907;1263;101992;-84
2023/08/26 03:43:57;;;;;;;5.70;5.20;;;;;;;21.13;100.00;99986.48;105849;1260;99232;-82
2023/08/26 03:46:43;;;;;;;5.90;5.20;;;;;;;21.13;100.00;99987.52;105843;1261;97854;-83
2023/08/26 03:49:28;;;;;;;6.80;6.10;;;;;;;21.11;100.00;99993.35;105816;1258;98925;-84
2023/08/26 03:52:14;;;;;;;5.20;4.80;;;;;;;21.08;100.00;99991.27;105960;1258;97972;-84
2023/08/26 03:55:00;;;;;;;6.90;6.20;;;;;;;21.03;100.00;99995.77;105935;1257;101410;-84
2023/08/26 03:57:45;;;;;;;6.20;5.70;;;;;;;21.00;100.00;99996.08;105912;1263;99239;-84
2023/08/26 04:00:30;;;;;;;7.30;6.50;;;;;;;20.98;100.00;100001.73;105880;1258;99088;-84
2023/08/26 04:03:15;;;;;;;8.10;6.60;;;;;;;20.95;100.00;100013.55;105721;1259;98054;-84
2023/08/26 04:06:03;;;;;;;7.10;6.40;;;;;;;20.93;100.00;100015.02;105960;1258;99230;-83
2023/08/26 04:08:48;;;;;;;8.70;6.90;;;;;;;20.92;100.00;100013.70;105577;1258;101416;-84
2023/08/26 04:11:34;;;;;;;9.10;7.00;;;;;;;20.91;100.00;100017.63;105603;1262;99173;-83
2023/08/26 04:14:20;;;;;;;8.90;6.50;;;;;;;20.91;100.00;100018.77;106008;1261;98038;-83
2023/08/26 04:17:06;;;;;;;13.10;8.00;;;;;;;20.91;100.00;100026.19;105889;1258;98574;-83
2023/08/26 04:19:52;;;;;;;7.80;6.80;;;;;;;20.91;100.00;100028.45;105894;1257;98034;-84
2023/08/26 04:22:37;;;;;;;9.00;7.70;;;;;;;20.91;100.00;100029.22;105863;1265;101338;-83
2023/08/26 04:25:26;;;;;;;10.90;8.00;;;;;;;20.91;100.00;100030.64;105760;1258;100439;-85
2023/08/26 04:28:11;;;;;;;8.90;7.70;;;;;;;20.92;100.00;100036.63;105821;1263;97991;-82
2023/08/26 04:30:59;;;;;;;9.60;8.10;;;;;;;20.94;100.00;100041.53;105791;1263;98238;-82
2023/08/26 04:33:44;;;;;;;8.50;7.80;;;;;;;20.96;100.00;100040.94;105828;1264;98510;-83
2023/08/26 04:36:31;;;;;;;10.50;8.30;;;;;;;20.98;100.00;100047.59;105830;1258;102686;-85
2023/08/26 04:39:19;;;;;;;12.60;8.70;;;;;;;20.99;100.00;100053.42;105751;1258;99132;-83
2023/08/26 04:42:05;;;;;;;12.20;9.30;;;;;;;21.00;100.00;100056.96;105920;1259;97952;-82
2023/08/26 04:44:51;;;;;;;10.70;9.20;;;;;;;21.02;100.00;100055.01;105750;1266;97998;-83
2023/08/26 04:47:36;;;;;;;9.60;8.60;;;;;;;21.04;100.00;100051.23;105957;1258;98489;-82
2023/08/26 04:50:22;;;;;;;10.70;9.40;;;;;;;21.08;100.00;100051.73;105757;1261;101466;-82
2023/08/26 04:53:09;;;;;;;14.00;10.30;;;;;;;21.12;100.00;100054.69;105807;1259;99916;-83
2023/08/26 04:55:54;;;;;;;12.10;9.30;;;;;;;21.15;100.00;100054.48;106044;1261;97889;-84
2023/08/26 04:58:40;;;;;;;11.60;8.90;;;;;;;21.17;100.00;100058.45;105808;1263;99260;-84
2023/08/26 05:01:27;;;;;;;11.60;10.00;;;;;;;21.20;100.00;100066.58;105862;1258;98532;-84
2023/08/26 05:04:12;;;;;;;11.00;9.40;;;;;;;21.24;100.00;100062.92;105891;1261;101433;-82
2023/08/26 05:06:57;;;;;;;11.90;9.80;;;;;;;21.25;100.00;100056.69;105807;1265;99677;-84
2023/08/26 05:09:43;;;;;;;16.00;10.10;;;;;;;21.28;100.00;100055.98;105703;1259;98646;-85
2023/08/26 05:12:30;;;;;;;13.00;10.60;;;;;;;21.32;100.00;100049.12;105629;1258;98019;-83
2023/08/26 05:15:16;;;;;;;13.50;11.10;;;;;;;21.35;100.00;100052.77;105797;1258;98604;-83
2023/08/26 05:18:01;;;;;;;12.20;10.40;;;;;;;21.37;100.00;100053.55;105958;1258;101866;-83
2023/08/26 05:20:48;;;;;;;12.50;11.20;;;;;;;21.41;100.00;100057.14;105902;1258;99175;-83
2023/08/26 05:23:33;;;;;;;12.40;11.10;;;;;;;21.46;100.00;100057.00;106086;1258;98999;-84
2023/08/26 05:26:18;;;;;;;14.30;11.50;;;;;;;21.51;100.00;100060.96;105911;1263;98116;-84
2023/08/26 05:29:04;;;;;;;13.90;12.00;;;;;;;21.55;100.00;100061.23;105951;1258;98881;-85
2023/08/26 05:31:54;;;;;;;14.30;12.00;;;;;;;21.60;100.00;100056.23;106036;1261;101448;-86
2023/08/26 05:34:40;;;;;;;14.70;11.90;;;;;;;21.67;100.00;100059.56;105949;1261;99229;-85
2023/08/26 05:37:25;;;;;;;12.80;11.00;;;;;;;21.72;100.00;100063.53;105936;1259;99258;-85
2023/08/26 05:40:13;;;;;;;14.60;12.60;;;;;;;21.78;100.00;100064.30;105957;1258;98054;-85
2023/08/26 05:42:58;;;;;;;15.30;12.70;;;;;;;21.86;100.00;100069.98;106090;1262;98407;-86
2023/08/26 05:45:45;;;;;;;13.10;11.40;;;;;;;21.93;100.00;100065.31;105755;1258;101437;-84
2023/08/26 05:48:30;;;;;;;14.00;11.30;;;;;;;22.01;100.00;100061.48;105814;1264;99218;-86
2023/08/26 05:51:17;;;;;;;14.00;12.70;;;;;;;22.08;100.00;100060.55;105865;1263;98886;-85
2023/08/26 05:54:03;;;;;;;17.80;13.30;;;;;;;22.15;100.00;100062.02;105780;1258;97944;-84
2023/08/26 05:56:49;;;;;;;14.70;13.00;;;;;;;22.22;100.00;100063.48;105874;1257;98535;-84
2023/08/26 05:59:34;;;;;;;16.40;12.60;;;;;;;22.29;100.00;100068.37;105983;1267;101421;-85
2023/08/26 06:02:20;;;;;;;15.60;12.70;;;;;;;22.35;100.00;100071.58;105980;1258;99239;-84
2023/08/26 06:05:06;;;;;;;16.90;13.90;;;;;;;22.40;100.00;100072.77;106075;1259;98926;-86
2023/08/26 06:07:52;;;;;;;14.60;12.80;;;;;;;22.46;100.00;100073.36;105910;1258;98113;-85
2023/08/26 06:10:38;;;;;;;16.00;14.00;;;;;;;22.52;100.00;100079.73;105739;1258;98457;-84
2023/08/26 06:13:24;;;;;;;22.20;14.90;;;;;;;22.58;100.00;100091.58;105899;1263;103765;-84
2023/08/26 06:16:10;;;;;;;17.00;12.50;;;;;;;22.63;100.00;100097.30;106467;1260;101406;-87
2023/08/26 06:18:57;;;;;;;14.90;13.30;;;;;;;22.71;100.00;100100.30;106467;1261;99043;-89
2023/08/26 06:21:42;;;;;;;15.50;13.00;;;;;;;22.79;100.00;100106.21;106037;1262;97976;-82
2023/08/26 06:24:29;;;;;;;14.40;12.10;;;;;;;22.88;100.00;100107.20;105731;1259;98008;-84
2023/08/26 06:27:16;;;;;;;15.90;12.70;;;;;;;22.97;100.00;100108.05;105650;1264;101432;-83
2023/08/26 06:30:03;;;;;;;17.90;13.20;;;;;;;23.05;100.00;100107.70;105803;1259;99177;-83
2023/08/26 06:32:51;;;;;;;15.00;13.00;;;;;;;23.12;100.00;100106.29;105825;1258;98457;-82
2023/08/26 06:35:37;;;;;;;16.10;12.90;;;;;;;23.19;100.00;100100.52;105845;1258;97988;-84
2023/08/26 06:38:23;;;;;;;16.40;14.10;;;;;;;23.26;100.00;100095.99;105970;1264;97899;-83
2023/08/26 06:41:09;;;;;;;16.80;13.10;;;;;;;23.33;100.00;100099.42;105973;1258;101984;-82
2023/08/26 06:43:55;;;;;;;14.20;11.50;;;;;;;23.38;100.00;100098.69;106126;1264;100603;-85
2023/08/26 06:46:42;;;;;;;15.40;11.40;;;;;;;23.45;100.00;100100.40;105775;1264;98249;-83
2023/08/26 06:49:27;;;;;;;22.20;12.50;;;;;;;23.52;100.00;100103.30;105468;1258;98032;-84
2023/08/26 06:52:14;;;;;;;11.70;10.40;;;;;;;23.61;100.00;100099.69;105647;1264;98062;-82
2023/08/26 06:55:00;;;;;;;13.40;10.90;;;;;;;23.69;100.00;100096.62;106036;1261;101433;-83
2023/08/26 06:57:45;;;;;;;13.80;10.20;;;;;;;23.78;100.00;100094.75;105742;1264;99214;-83
2023/08/26 07:00:32;;;;;;;11.70;10.20;;;;;;;23.85;100.00;100093.92;105863;1263;97971;-83
2023/08/26 07:03:17;;;;;;;14.20;9.70;;;;;;;23.92;100.00;100093.82;105817;1260;98062;-83
2023/08/26 07:06:04;;;;;;;12.00;9.90;;;;;;;23.99;100.00;100093.05;105777;1257;98151;-83
2023/08/26 07:08:49;;;;;;;11.30;10.10;;;;;;;24.08;100.00;100092.71;105628;1263;101426;-83
2023/08/26 07:11:35;;;;;;;11.40;9.90;;;;;;;24.16;100.00;100091.55;105731;1266;99176;-84
2023/08/26 07:14:20;;;;;;;15.00;9.80;;;;;;;24.24;100.00;100089.34;105642;1267;99770;-84
2023/08/26 07:17:06;;;;;;;13.20;9.30;;;;;;;24.30;100.00;100089.55;105672;1267;96655;-84
2023/08/26 07:19:52;;;;;;;12.90;8.80;;;;;;;24.37;100.00;100090.13;105913;1264;97988;-84
2023/08/26 07:22:38;;;;;;;13.30;8.70;;;;;;;24.44;100.00;100091.00;106043;1261;101433;-83
2023/08/26 07:25:23;;;;;;;13.00;9.50;;;;;;;24.50;100.00;100093.94;105734;1263;99166;-83
2023/08/26 07:28:09;;;;;;;14.00;8.70;;;;;;;24.58;100.00;100099.44;105541;1277;99104;-83
2023/08/26 07:31:03;;;;;;;11.90;8.90;;;;;;;24.64;100.00;100109.55;105764;1264;98765;-83
2023/08/26 07:33:48;;;;;;;9.00;8.10;;;;;;;24.69;100.00;100108.52;105900;1266;98513;-83
2023/08/26 07:36:34;;;;;;;11.80;7.50;;;;;;;24.75;100.00;100112.91;105702;1261;102646;-84
2023/08/26 07:39:21;;;;;;;9.70;6.40;;;;;;;24.83;100.00;100114.96;105798;1263;99796;-82
2023/08/26 07:42:07;;;;;;;8.40;7.30;;;;;;;24.91;99.98;100114.80;105757;1260;99051;-83
2023/08/26 07:44:52;;;;;;;12.20;8.50;;;;;;;24.98;99.50;100112.85;105891;1261;98149;-84
2023/08/26 07:47:40;;;;;;;12.90;7.60;;;;;;;25.03;98.27;100117.02;105745;1263;97972;-82
2023/08/26 07:50:25;;;;;;;11.20;7.20;;;;;;;25.08;98.08;100114.05;105595;1264;101428;-83
2023/08/26 07:53:11;;;;;;;9.90;6.40;;;;;;;25.15;97.56;100117.41;105808;1261;100363;-82
2023/08/26 07:55:56;;;;;;;8.80;6.00;;;;;;;25.21;96.54;100120.78;105895;1272;99521;-85
2023/08/26 07:58:42;;;;;;;9.30;7.10;;;;;;;25.27;96.70;100122.02;105827;1263;98430;-82
2023/08/26 08:01:27;;;;;;;10.40;6.50;;;;;;;25.35;95.75;100120.77;105720;1263;99362;-82
2023/08/26 08:04:13;;;;;;;11.60;6.50;;;;;;;25.40;95.18;100123.16;105781;1264;103053;-83
2023/08/26 08:06:59;;;;;;;7.90;6.50;;;;;;;25.48;95.69;100128.29;105620;1258;99193;-84
2023/08/26 08:09:44;;;;;;;8.90;6.00;;;;;;;25.52;94.75;100135.25;105539;1257;97976;-82
2023/08/26 08:12:30;;;;;;;12.10;5.90;;;;;;;25.56;94.55;100137.49;105894;1264;97931;-83
2023/08/26 08:15:16;;;;;;;10.00;5.70;;;;;;;25.62;94.22;100141.85;105748;1266;98398;-83
2023/08/26 08:18:02;;;;;;;6.00;5.10;;;;;;;25.68;93.17;100139.08;105769;1274;101411;-83
2023/08/26 08:20:47;;;;;;;9.90;5.60;;;;;;;25.76;93.03;100136.50;105965;1274;99140;-82
2023/08/26 08:23:33;;;;;;;6.60;5.70;;;;;;;25.83;92.48;100137.58;105765;1264;99001;-86
2023/08/26 08:26:19;;;;;;;11.80;5.90;;;;;;;25.90;92.31;100143.98;105740;1264;98099;-84
2023/08/26 08:29:04;;;;;;;7.90;5.90;;;;;;;25.97;92.39;100146.20;105934;1262;97835;-83
2023/08/26 08:31:49;;;;;;;6.00;5.30;;;;;;;26.03;91.36;100149.23;105939;1264;101419;-81
2023/08/26 08:34:35;;;;;;;7.60;5.40;;;;;;;26.07;90.33;100149.34;105740;1265;100480;-84
2023/08/26 08:37:21;;;;;;;7.90;5.80;;;;;;;26.11;90.14;100147.27;105823;1261;98101;-85
2023/08/26 08:40:07;;;;;;;7.00;6.00;;;;;;;26.18;90.86;100146.20;105930;1261;97982;-84
2023/08/26 08:42:54;;;;;;;10.40;6.40;;;;;;;26.26;90.34;100147.45;105935;1263;98494;-84
2023/08/26 08:45:41;;;;;;;7.50;5.30;;;;;;;26.32;89.78;100150.15;105867;1264;101420;-83
2023/08/26 08:48:28;;;;;;;7.80;5.30;;;;;;;26.37;89.60;100148.61;106710;1260;100463;-84
2023/08/26 08:51:15;;;;;;;6.80;5.90;;;;;;;26.43;89.36;100145.39;105797;1265;98494;-85
2023/08/26 08:54:04;;;;;;;6.50;5.90;;;;;;;26.48;89.27;100150.79;105880;1264;98065;-83
2023/08/26 08:56:50;;;;;;;7.30;5.40;;;;;;;26.53;88.69;100152.84;105904;1266;97880;-84
2023/08/26 08:59:37;;;;;;;9.90;6.10;;;;;;;26.59;88.04;100150.91;105894;1263;103196;-84
2023/08/26 09:02:22;;;;;;;6.40;4.80;;;;;;;26.66;87.39;100154.86;105780;1263;100590;-84
2023/08/26 09:05:09;;;;;;;5.70;5.10;;;;;;;26.72;87.53;100151.02;105896;1264;99007;-84
2023/08/26 09:07:56;;;;;;;7.80;5.20;;;;;;;26.78;86.58;100155.82;105858;1265;98161;-83
2023/08/26 09:10:44;;;;;;;7.60;4.80;;;;;;;26.82;86.29;100160.64;106019;1264;98661;-83
2023/08/26 09:13:30;;;;;;;5.40;3.90;;;;;;;26.85;86.05;100161.29;105917;1259;101334;-84
2023/08/26 09:16:15;;;;;;;7.60;5.00;;;;;;;26.84;85.03;100168.34;105990;1263;99875;-83
2023/08/26 09:19:02;;;;;;;6.10;4.30;;;;;;;26.88;85.29;100166.54;105922;1263;98065;-84
2023/08/26 09:21:48;;;;;;;5.90;4.40;;;;;;;26.97;85.37;100169.45;105996;1260;97936;-82
2023/08/26 09:24:33;;;;;;;7.40;4.40;;;;;;;27.04;84.90;100172.88;105953;1263;97991;-83
2023/08/26 09:27:19;;;;;;;4.90;4.40;;;;;;;27.05;83.73;100175.88;105733;1258;101353;-82
2023/08/26 09:30:05;;;;;;;4.90;3.70;;;;;;;27.06;82.74;100176.14;106026;1263;99312;-85
2023/08/26 09:32:53;;;;;;;4.70;4.10;;;;;;;27.10;82.48;100176.66;105857;1263;100024;-86
2023/08/26 09:35:47;;;;;;;6.30;4.50;;;;;;;27.17;83.25;100180.19;105933;1264;97977;-85
2023/08/26 09:38:44;;;;;;;8.10;4.50;;;;;;;27.24;82.63;100177.36;105943;1257;98393;-84
2023/08/26 09:41:30;;;;;;;5.80;4.10;;;;;;;27.27;81.69;100178.46;105896;1264;102317;-84
2023/08/26 09:44:17;;;;;;;5.90;3.70;;;;;;;27.25;81.09;100181.64;105883;1258;100141;-84
2023/08/26 09:47:03;;;;;;;3.30;3.00;;;;;;;27.21;79.78;100177.74;105723;1259;98055;-83
2023/08/26 09:49:49;;;;;;;5.30;3.00;;;;;;;27.24;78.45;100175.55;105793;1267;97868;-83
2023/08/26 09:52:42;;;;;;;5.40;3.00;;;;;;;27.27;77.96;100176.64;105931;1266;97984;-84
2023/08/26 09:55:29;;;;;;;6.70;3.40;;;;;;;27.29;78.19;100178.58;105992;1259;102681;-84
2023/08/26 09:58:15;;;;;;;5.00;3.00;;;;;;;27.28;78.17;100175.85;105909;1266;99177;-85
2023/08/26 10:01:02;;;;;;;4.60;3.50;;;;;;;27.26;76.93;100175.51;106046;1261;98037;-83
2023/08/26 10:04:09;;;;;;;5.30;3.20;;;;;;;27.24;76.23;100178.95;105996;1263;97747;-84
2023/08/26 10:06:59;;;;;;;3.40;2.80;;;;;;;27.26;76.33;100184.09;105975;1264;99804;-85
2023/08/26 10:09:51;;;;;;;5.30;3.20;;;;;;;27.31;76.08;100184.92;105737;1266;101283;-77
2023/08/26 10:12:41;;;;;;;6.30;3.40;;;;;;;27.32;74.87;100188.85;105095;1271;100349;-77
2023/08/26 10:15:30;;;;;;;3.00;2.70;;;;;;;27.33;74.58;100185.75;105056;1263;98057;-77
2023/08/26 10:18:24;;;;;;;3.90;2.70;;;;;;;27.34;74.60;100178.92;105066;1263;99286;-77
2023/08/26 10:21:13;;;;;;;3.80;3.00;;;;;;;27.33;74.27;100180.22;105122;1263;98510;-77
2023/08/26 10:23:59;;;;;;;4.70;2.70;;;;;;;27.32;74.18;100181.98;105055;1264;102615;-77
2023/08/26 10:26:44;;;;;;;3.10;2.50;;;;;;;27.29;74.19;100181.01;105060;1261;99244;-77
2023/08/26 10:29:31;;;;;;;4.00;2.70;;;;;;;27.24;73.75;100178.14;105020;1264;98415;-78
2023/08/26 10:32:22;;;;;;;3.90;2.70;;;;;;;27.21;73.65;100172.96;105093;1260;98067;-77
2023/08/26 10:35:13;;;;;;;2.70;2.50;;;;;;;27.20;74.04;100165.02;105077;1263;99823;-78
2023/08/26 10:38:14;;;;;;;4.60;2.70;;;;;;;27.21;74.53;100160.44;105008;1263;102084;-77
2023/08/26 10:41:10;;;;;;;3.70;2.10;;;;;;;27.23;74.72;100149.84;105489;1264;100355;-77
2023/08/26 10:43:58;;;;;;;5.30;2.80;;;;;;;27.26;74.57;100138.11;105059;1264;98433;-78
2023/08/26 10:46:56;;;;;;;3.90;2.80;;;;;;;27.28;74.76;100134.36;105396;1264;97966;-77
2023/08/26 10:49:42;;;;;;;3.90;2.80;;;;;;;27.32;74.92;100144.25;105130;1263;99098;-77
2023/08/26 10:52:33;;;;;;;4.40;2.40;;;;;;;27.36;74.90;100154.35;105044;1260;101524;-77
2023/08/26 10:55:24;;;;;;;4.80;2.40;;;;;;;27.40;74.00;100156.27;105129;1264;99220;-77
2023/08/26 10:58:18;;;;;;;3.30;2.50;;;;;;;27.42;73.62;100154.52;105395;1260;99891;-84
2023/08/26 11:01:04;;;;;;;5.00;2.50;;;;;;;27.45;73.12;100150.42;105972;1260;97904;-84
2023/08/26 11:03:50;;;;;;;3.20;2.30;;;;;;;27.50;72.82;100149.23;106040;1261;97939;-83
2023/08/26 11:06:39;;;;;;;5.70;2.70;;;;;;;27.61;72.96;100151.61;105832;1261;102719;-83
2023/08/26 11:09:26;;;;;;;3.80;2.50;;;;;;;27.76;73.45;100149.16;105995;1261;99164;-83
2023/08/26 11:12:25;;;;;;;2.70;2.20;;;;;;;27.89;72.92;100145.08;105877;1264;98069;-84
2023/08/26 11:15:12;;;;;;;3.50;2.40;;;;;;;27.97;71.81;100136.24;106266;1260;97965;-82
2023/08/26 11:17:57;;;;;;;4.80;3.10;;;;;;;28.03;71.35;100137.14;106255;1257;98530;-83
2023/08/26 11:20:44;;;;;;;2.50;2.30;;;;;;;28.11;71.56;100139.66;105837;1259;102530;-84
2023/08/26 11:23:31;;;;;;;2.60;2.30;;;;;;;28.18;71.37;100137.77;105660;1260;99190;-83
2023/08/26 11:26:20;;;;;;;3.40;1.90;;;;;;;28.25;71.02;100140.73;105905;1264;98084;-82
2023/08/26 11:29:06;;;;;;;2.70;2.20;;;;;;;28.29;70.17;100142.76;105705;1258;97987;-82
2023/08/26 11:31:54;;;;;;;3.30;2.20;;;;;;;28.33;69.43;100141.00;105727;1263;99536;-83
2023/08/26 11:34:39;;;;;;;7.20;2.20;;;;;;;28.36;68.80;100133.60;105778;1260;102026;-84
2023/08/26 11:37:25;;;;;;;4.00;2.40;;;;;;;28.39;68.29;100127.42;106066;1257;99187;-83
2023/08/26 11:40:11;;;;;;;2.90;1.90;;;;;;;28.44;67.59;100130.66;105905;1261;98980;-84
2023/08/26 11:42:57;;;;;;;4.10;2.40;;;;;;;28.47;67.07;100123.94;105997;1260;98048;-85
2023/08/26 11:45:45;;;;;;;6.30;2.20;;;;;;;28.56;67.09;100122.60;105641;1260;97885;-84
2023/08/26 11:48:35;;;;;;;5.90;2.30;;;;;;;28.64;66.46;100125.44;105686;1266;102737;-83
2023/08/26 11:51:20;;;;;;;6.50;2.40;;;;;;;28.72;67.00;100128.08;105695;1257;99244;-83
2023/08/26 11:54:09;;;;;;;2.60;2.00;;;;;;;28.81;67.03;100132.74;105859;1261;99317;-85
2023/08/26 11:56:55;;;;;;;6.00;2.00;;;;;;;28.87;66.86;100130.23;105814;1261;99050;-82
2023/08/26 11:59:43;;;;;;;4.70;2.70;;;;;;;28.92;66.24;100131.58;105872;1263;98502;-82
2023/08/26 12:02:28;;;;;;;4.70;2.50;;;;;;;28.97;65.72;100133.64;105800;1261;102483;-83
2023/08/26 12:05:15;;;;;;;3.30;2.20;;;;;;;29.02;65.43;100128.38;105812;1263;99325;-83
2023/08/26 12:08:02;;;;;;;5.40;2.40;;;;;;;29.05;65.47;100129.91;105662;1261;98655;-83
2023/08/26 12:10:50;;;;;;;4.50;2.40;;;;;;;29.07;65.09;100137.34;105679;1257;97927;-82
2023/08/26 12:13:38;;;;;;;3.80;2.50;;;;;;;29.05;64.13;100142.15;106082;1257;98535;-83
2023/08/26 12:16:23;;;;;;;4.40;1.90;;;;;;;29.01;64.33;100156.27;107070;1259;101512;-84
2023/08/26 12:19:17;;;;;;;3.10;2.30;;;;;;;29.03;63.97;100165.04;105823;1258;99204;-84
2023/08/26 12:22:03;;;;;;;4.90;2.30;;;;;;;29.09;63.78;100156.69;105738;1263;99269;-83
2023/08/26 12:24:48;;;;;;;3.50;2.20;;;;;;;29.17;63.57;100156.16;105636;1258;97986;-83
2023/08/26 12:27:41;;;;;;;5.10;2.70;;;;;;;29.23;62.91;100152.98;106010;1258;97942;-83
2023/08/26 12:30:26;;;;;;;3.60;2.30;;;;;;;29.20;62.22;100148.02;105730;1257;102203;-85
2023/08/26 12:33:12;;;;;;;3.70;2.80;;;;;;;29.13;62.43;100154.98;106042;1263;100443;-82
2023/08/26 12:35:57;;;;;;;3.10;2.80;;;;;;;29.03;61.34;100156.77;105938;1259;98977;-84